Time;durP1;ratioP1;P1;durP2;ratioP2;P2;SDS_P1;SDS_P2;PMS_P1;PMS_P2;Temp;Humidity;BMP_temperature;BMP_pressure;BME280_temperature;BME280_humidity;BME280_pressure;Samples;Min_cycle;Max_cycle;Signal;HPM_P1;HPM_P2
2023/10/21 00:00:37;;;;;;;40.55;20.30;;;9.50;99.90;;;;;;4795903;29;20071;-60
2023/10/21 00:03:02;;;;;;;37.90;19.88;;;9.30;99.90;;;;;;4796071;29;20051;-59
2023/10/21 00:05:28;;;;;;;37.58;18.67;;;9.40;99.90;;;;;;4794369;30;20055;-59
2023/10/21 00:07:54;;;;;;;39.78;20.13;;;9.00;99.90;;;;;;4795587;29;20062;-59
2023/10/21 00:10:19;;;;;;;38.00;19.92;;;9.00;99.90;;;;;;4795430;29;20043;-60
2023/10/21 00:12:45;;;;;;;37.28;18.98;;;9.40;99.90;;;;;;4795621;29;20051;-60
2023/10/21 00:15:11;;;;;;;40.28;20.13;;;9.50;99.90;;;;;;4795504;29;20047;-60
2023/10/21 00:17:37;;;;;;;40.55;19.55;;;9.30;99.90;;;;;;4795960;29;20131;-60
2023/10/21 00:20:06;;;;;;;39.05;19.10;;;9.20;99.90;;;;;;4795558;29;20050;-60
2023/10/21 00:22:32;;;;;;;42.35;19.58;;;9.60;99.90;;;;;;4794942;29;20053;-60
2023/10/21 00:24:58;;;;;;;41.88;20.38;;;9.40;99.90;;;;;;4795020;29;20055;-60
2023/10/21 00:27:24;;;;;;;43.15;19.85;;;9.30;99.90;;;;;;4795239;29;20050;-60
2023/10/21 00:29:50;;;;;;;40.75;20.27;;;9.50;99.90;;;;;;4795291;29;20050;-60
2023/10/21 00:32:16;;;;;;;47.00;20.85;;;9.40;99.90;;;;;;4794990;29;20043;-59
2023/10/21 00:34:42;;;;;;;40.75;19.73;;;9.30;99.90;;;;;;4795300;29;20126;-59
2023/10/21 00:37:08;;;;;;;44.33;19.48;;;9.80;99.90;;;;;;4795028;29;20146;-60
2023/10/21 00:39:34;;;;;;;40.00;19.75;;;9.50;99.90;;;;;;4794863;29;20081;-60
2023/10/21 00:42:01;;;;;;;45.80;20.67;;;9.60;99.90;;;;;;4795258;29;20099;-61
2023/10/21 00:44:27;;;;;;;39.83;19.42;;;9.50;99.90;;;;;;4794916;29;20051;-60
2023/10/21 00:46:53;;;;;;;41.65;18.92;;;10.00;99.90;;;;;;4795159;29;20054;-60
2023/10/21 00:49:20;;;;;;;40.33;18.98;;;10.00;99.90;;;;;;4794712;29;20059;-60
2023/10/21 00:51:48;;;;;;;42.72;19.20;;;10.00;99.90;;;;;;4794916;29;20115;-60
2023/10/21 00:54:16;;;;;;;38.80;18.70;;;10.10;99.90;;;;;;4794934;29;20051;-60
2023/10/21 00:56:42;;;;;;;43.15;17.77;;;9.80;99.90;;;;;;4793181;30;20477;-59
2023/10/21 00:59:10;;;;;;;40.03;18.45;;;9.80;99.90;;;;;;4795011;29;20047;-60
2023/10/21 01:01:36;;;;;;;39.88;16.80;;;9.70;99.90;;;;;;4794604;29;20122;-60
2023/10/21 01:04:05;;;;;;;35.97;17.67;;;9.70;99.90;;;;;;4794486;29;20055;-60
2023/10/21 01:06:34;;;;;;;43.03;17.17;;;9.70;99.90;;;;;;4793051;29;20059;-60
2023/10/21 01:08:59;;;;;;;36.63;17.20;;;10.10;99.90;;;;;;4794828;29;20054;-60
2023/10/21 01:11:25;;;;;;;41.90;17.00;;;10.20;99.90;;;;;;4794796;29;20095;-60
2023/10/21 01:13:51;;;;;;;39.40;16.50;;;9.90;99.90;;;;;;4794371;29;20138;-60
2023/10/21 01:16:17;;;;;;;36.38;16.27;;;9.70;99.90;;;;;;4778560;30;20059;-60
2023/10/21 01:18:43;;;;;;;35.83;16.58;;;9.80;99.90;;;;;;4794397;29;20057;-60
2023/10/21 01:21:09;;;;;;;36.88;15.95;;;10.10;99.90;;;;;;4794461;29;20499;-60
2023/10/21 01:23:36;;;;;;;38.08;16.25;;;10.10;99.90;;;;;;4794282;29;20105;-60
2023/10/21 01:26:03;;;;;;;40.45;16.38;;;10.40;99.90;;;;;;4793188;29;20055;-60
2023/10/21 01:28:29;;;;;;;38.70;16.67;;;10.40;99.90;;;;;;4794304;29;20377;-59
2023/10/21 01:30:55;;;;;;;44.97;18.50;;;10.40;99.90;;;;;;4794264;29;20062;-60
2023/10/21 01:33:21;;;;;;;38.15;17.65;;;10.50;99.90;;;;;;4794323;29;20055;-59
2023/10/21 01:35:46;;;;;;;38.38;17.23;;;10.30;99.90;;;;;;4792300;30;20115;-59
2023/10/21 01:38:13;;;;;;;39.17;18.90;;;10.30;99.90;;;;;;4793974;29;20078;-59
2023/10/21 01:40:40;;;;;;;46.13;18.33;;;10.10;99.90;;;;;;4793745;29;20082;-60
2023/10/21 01:43:06;;;;;;;42.72;18.52;;;10.60;99.90;;;;;;4794479;29;20051;-60
2023/10/21 01:45:34;;;;;;;43.83;17.70;;;10.30;99.90;;;;;;4793830;29;20089;-60
2023/10/21 01:48:00;;;;;;;41.90;18.13;;;10.50;99.90;;;;;;4793758;29;20531;-60
2023/10/21 01:50:28;;;;;;;49.58;19.58;;;10.20;99.90;;;;;;4794236;29;20039;-60
2023/10/21 01:52:54;;;;;;;45.20;18.90;;;10.20;99.90;;;;;;4793724;29;20099;-60
2023/10/21 01:55:20;;;;;;;49.63;19.85;;;10.10;99.90;;;;;;4793637;29;20073;-60
2023/10/21 01:57:45;;;;;;;47.50;19.02;;;10.00;99.90;;;;;;4793640;29;20047;-61
2023/10/21 02:00:11;;;;;;;52.15;21.15;;;10.20;99.90;;;;;;4794088;29;20039;-61
2023/10/21 02:02:38;;;;;;;56.75;20.60;;;10.40;99.90;;;;;;4793555;29;20608;-59
2023/10/21 02:05:05;;;;;;;54.30;20.88;;;10.00;99.90;;;;;;4793828;29;20509;-60
2023/10/21 02:07:36;;;;;;;57.72;22.40;;;10.30;99.90;;;;;;4792636;30;20051;-59
2023/10/21 02:10:03;;;;;;;54.25;20.10;;;10.30;99.90;;;;;;4810648;29;20054;-60
2023/10/21 02:12:30;;;;;;;56.65;21.10;;;9.90;99.90;;;;;;4810514;29;20101;-60
2023/10/21 02:14:55;;;;;;;51.65;20.67;;;10.10;99.90;;;;;;4811324;29;20046;-60
2023/10/21 02:17:21;;;;;;;55.50;23.05;;;9.70;99.90;;;;;;4811143;29;20059;-60
2023/10/21 02:19:47;;;;;;;60.28;22.35;;;9.70;99.90;;;;;;4810179;29;20047;-60
2023/10/21 02:22:12;;;;;;;56.10;21.67;;;9.60;99.90;;;;;;4811488;29;20121;-59
2023/10/21 02:24:38;;;;;;;60.97;23.63;;;9.60;99.90;;;;;;4811644;29;20108;-60
2023/10/21 02:27:04;;;;;;;62.83;23.85;;;9.50;99.90;;;;;;4811278;29;20097;-60
2023/10/21 02:29:31;;;;;;;59.85;23.27;;;9.60;99.90;;;;;;4811558;29;20497;-60
2023/10/21 02:31:57;;;;;;;61.88;23.55;;;9.90;99.90;;;;;;4810811;29;20476;-59
2023/10/21 02:34:23;;;;;;;56.45;22.98;;;9.90;99.90;;;;;;4796649;29;20044;-59
2023/10/21 02:36:49;;;;;;;57.53;23.65;;;10.10;99.90;;;;;;4792894;29;20063;-60
2023/10/21 02:39:17;;;;;;;62.47;22.52;;;10.00;99.90;;;;;;4793242;29;20567;-60
2023/10/21 02:41:43;;;;;;;62.13;22.70;;;9.60;99.90;;;;;;4793487;29;20055;-60
2023/10/21 02:44:08;;;;;;;63.70;23.95;;;9.50;99.90;;;;;;4792899;29;20397;-60
2023/10/21 02:46:34;;;;;;;64.10;21.88;;;9.50;99.90;;;;;;4793290;29;20055;-60
2023/10/21 02:49:00;;;;;;;63.65;23.25;;;9.40;99.90;;;;;;4791860;29;20051;-60
2023/10/21 02:51:25;;;;;;;62.92;22.70;;;9.50;99.90;;;;;;4793421;29;20054;-60
2023/10/21 02:53:51;;;;;;;66.85;24.05;;;9.70;99.90;;;;;;4793215;29;20055;-60
2023/10/21 02:56:17;;;;;;;65.45;24.00;;;9.40;99.90;;;;;;4792983;29;20063;-60
2023/10/21 02:58:43;;;;;;;63.88;24.33;;;9.60;99.90;;;;;;4793585;29;20381;-60
2023/10/21 03:01:19;;;;;;;68.88;25.42;;;9.50;99.90;;;;;;4792752;29;20055;-60
2023/10/21 03:03:47;;;;;;;68.97;24.85;;;9.60;99.90;;;;;;4793312;29;20051;-60
2023/10/21 03:06:13;;;;;;;68.43;24.33;;;9.90;99.90;;;;;;4792802;29;20062;-60
2023/10/21 03:08:39;;;;;;;62.17;24.52;;;9.40;99.90;;;;;;4792019;30;20059;-60
2023/10/21 03:11:06;;;;;;;62.55;24.30;;;9.50;99.90;;;;;;4792948;29;20066;-60
2023/10/21 03:13:36;;;;;;;66.50;24.20;;;9.50;99.90;;;;;;4792932;29;20083;-60
2023/10/21 03:16:10;;;;;;;72.00;25.05;;;9.30;99.90;;;;;;4793270;29;20402;-60
2023/10/21 03:18:37;;;;;;;65.72;23.58;;;9.30;99.90;;;;;;4793054;29;20047;-60
2023/10/21 03:21:04;;;;;;;63.75;23.77;;;9.40;99.90;;;;;;4792881;29;20040;-60
2023/10/21 03:23:30;;;;;;;65.65;23.35;;;9.30;99.90;;;;;;4792660;29;20055;-60
2023/10/21 03:26:03;;;;;;;54.88;23.58;;;9.50;99.90;;;;;;4792685;29;20039;-60
2023/10/21 03:28:30;;;;;;;62.97;24.10;;;9.30;99.90;;;;;;4794280;29;20051;-60
2023/10/21 03:30:59;;;;;;;62.20;22.85;;;9.50;99.90;;;;;;4796004;29;20087;-60
2023/10/21 03:33:26;;;;;;;69.30;24.63;;;9.70;99.90;;;;;;4796169;29;20105;-60
2023/10/21 03:35:57;;;;;;;65.80;23.13;;;9.40;99.90;;;;;;4795838;29;20053;-60
2023/10/21 03:38:24;;;;;;;62.17;22.75;;;9.30;99.90;;;;;;4795817;29;20523;-60
2023/10/21 03:40:59;;;;;;;55.65;22.40;;;9.20;99.90;;;;;;4794685;29;20055;-60
2023/10/21 03:43:26;;;;;;;65.43;22.63;;;9.40;99.90;;;;;;4795904;29;20568;-59
2023/10/21 03:45:52;;;;;;;62.38;23.45;;;9.70;99.90;;;;;;4796355;29;20133;-60
2023/10/21 03:48:19;;;;;;;66.60;23.13;;;9.60;99.90;;;;;;4795873;29;20058;-60
2023/10/21 03:50:44;;;;;;;62.95;23.15;;;9.60;99.90;;;;;;4796002;29;20079;-60
2023/10/21 03:53:11;;;;;;;55.25;22.95;;;9.20;99.90;;;;;;4795620;29;20059;-60
2023/10/21 03:55:37;;;;;;;55.53;23.10;;;9.70;99.90;;;;;;4795732;29;20047;-60
2023/10/21 03:58:03;;;;;;;67.25;22.80;;;9.30;99.90;;;;;;4795683;29;20046;-60
2023/10/21 04:00:29;;;;;;;60.00;22.63;;;9.70;99.90;;;;;;4796012;29;20058;-60
2023/10/21 04:02:55;;;;;;;59.47;23.08;;;9.30;99.90;;;;;;4795902;29;20102;-60
2023/10/21 04:05:20;;;;;;;53.03;22.52;;;9.80;99.90;;;;;;4795612;29;20066;-60
2023/10/21 04:07:46;;;;;;;56.47;23.00;;;9.40;99.90;;;;;;4794128;29;20059;-60
2023/10/21 04:10:12;;;;;;;65.53;23.45;;;9.50;99.90;;;;;;4795653;29;20050;-60
2023/10/21 04:12:39;;;;;;;56.55;23.63;;;9.40;99.90;;;;;;4795812;29;20043;-61
2023/10/21 04:15:07;;;;;;;61.83;23.67;;;9.30;99.90;;;;;;4795398;29;20416;-60
2023/10/21 04:17:33;;;;;;;57.30;23.33;;;9.50;99.90;;;;;;4795651;29;20059;-60
2023/10/21 04:19:59;;;;;;;61.67;24.98;;;9.30;99.90;;;;;;4795782;29;20061;-60
2023/10/21 04:22:25;;;;;;;61.65;24.02;;;9.20;99.90;;;;;;4795226;29;20055;-60
2023/10/21 04:24:50;;;;;;;62.42;24.30;;;9.70;99.90;;;;;;4795281;29;20050;-60
2023/10/21 04:27:16;;;;;;;68.90;25.08;;;9.70;99.90;;;;;;4798346;29;20050;-60
2023/10/21 04:29:42;;;;;;;68.13;26.35;;;9.20;99.90;;;;;;4813600;29;20497;-60
2023/10/21 04:32:07;;;;;;;65.25;24.73;;;9.30;99.90;;;;;;4811917;29;20058;-60
2023/10/21 04:34:33;;;;;;;62.70;24.20;;;9.50;99.90;;;;;;4797141;29;20670;-60
2023/10/21 04:36:59;;;;;;;69.68;25.80;;;9.70;99.90;;;;;;4794903;29;20065;-60
2023/10/21 04:39:25;;;;;;;65.28;24.42;;;9.30;99.90;;;;;;4794675;29;20083;-60
2023/10/21 04:41:50;;;;;;;68.13;25.48;;;9.70;99.90;;;;;;4795290;29;20123;-60
2023/10/21 04:44:16;;;;;;;64.43;24.77;;;9.20;99.90;;;;;;4794986;29;20052;-60
2023/10/21 04:46:42;;;;;;;65.70;24.95;;;9.50;99.90;;;;;;4794957;29;20417;-60
2023/10/21 04:49:08;;;;;;;61.75;25.25;;;9.20;99.90;;;;;;4794639;29;20074;-58
2023/10/21 04:51:33;;;;;;;65.50;25.02;;;9.60;99.90;;;;;;4795383;29;20055;-60
2023/10/21 04:53:59;;;;;;;57.90;23.73;;;9.30;99.90;;;;;;4794875;29;20110;-60
2023/10/21 04:56:27;;;;;;;61.30;25.35;;;9.40;99.90;;;;;;4794572;29;20058;-60
2023/10/21 04:58:53;;;;;;;67.57;24.25;;;9.70;99.90;;;;;;4795024;29;20095;-60
2023/10/21 05:01:19;;;;;;;63.33;24.40;;;9.30;99.90;;;;;;4794704;29;20107;-60
2023/10/21 05:03:44;;;;;;;64.85;24.88;;;9.70;99.90;;;;;;4794681;29;20059;-60
2023/10/21 05:06:10;;;;;;;58.10;23.48;;;9.00;99.90;;;;;;4794544;29;20047;-60
2023/10/21 05:08:36;;;;;;;61.50;23.45;;;9.50;99.90;;;;;;4794931;29;20051;-60
2023/10/21 05:11:01;;;;;;;63.58;23.23;;;9.50;99.90;;;;;;4794569;29;20100;-59
2023/10/21 05:13:27;;;;;;;55.28;23.60;;;9.50;99.90;;;;;;4794669;29;20055;-60
2023/10/21 05:15:53;;;;;;;55.53;23.38;;;9.10;99.90;;;;;;4794766;29;20107;-60
2023/10/21 05:18:20;;;;;;;59.70;23.38;;;9.30;99.90;;;;;;4794264;29;20079;-60
2023/10/21 05:20:46;;;;;;;59.22;22.35;;;9.30;99.90;;;;;;4794528;29;20516;-60
2023/10/21 05:23:11;;;;;;;60.65;23.08;;;9.10;99.90;;;;;;4794303;29;20070;-60
2023/10/21 05:25:37;;;;;;;55.30;23.15;;;9.50;99.90;;;;;;4794434;29;20460;-60
2023/10/21 05:28:03;;;;;;;65.97;24.65;;;9.40;99.90;;;;;;4794349;29;20067;-60
2023/10/21 05:30:29;;;;;;;60.53;22.77;;;9.00;99.90;;;;;;4794405;29;20106;-60
2023/10/21 05:32:55;;;;;;;61.65;21.58;;;8.90;99.90;;;;;;4794338;29;20074;-57
2023/10/21 05:35:21;;;;;;;59.03;21.48;;;9.30;99.90;;;;;;4792272;29;20063;-58
2023/10/21 05:37:47;;;;;;;59.75;21.83;;;9.00;99.90;;;;;;4794097;29;20598;-57
2023/10/21 05:40:13;;;;;;;54.08;20.70;;;8.90;99.90;;;;;;4794052;29;20089;-58
2023/10/21 05:42:39;;;;;;;54.10;22.00;;;9.50;99.90;;;;;;4794379;29;20085;-58
2023/10/21 05:45:07;;;;;;;48.58;20.90;;;8.90;99.90;;;;;;4793786;29;20516;-58
2023/10/21 05:47:35;;;;;;;56.65;20.85;;;9.50;99.90;;;;;;4793919;29;20055;-58
2023/10/21 05:50:01;;;;;;;52.80;20.40;;;9.10;99.90;;;;;;4790986;29;20066;-58
2023/10/21 05:52:26;;;;;;;55.47;20.30;;;9.30;99.90;;;;;;4789453;29;20051;-57
2023/10/21 05:54:52;;;;;;;51.38;20.13;;;9.00;99.90;;;;;;4790148;29;20100;-58
2023/10/21 05:57:19;;;;;;;52.70;19.98;;;9.10;99.90;;;;;;4789886;29;20564;-58
2023/10/21 05:59:44;;;;;;;58.35;19.25;;;9.40;99.90;;;;;;4790248;29;20055;-58
2023/10/21 06:02:11;;;;;;;54.88;19.90;;;9.30;99.90;;;;;;4788099;30;20073;-57
2023/10/21 06:04:37;;;;;;;48.47;18.10;;;9.40;99.90;;;;;;4790405;29;20074;-58
2023/10/21 06:07:03;;;;;;;48.60;19.23;;;9.20;99.90;;;;;;4790274;29;20573;-57
2023/10/21 06:09:28;;;;;;;49.92;18.05;;;9.40;99.90;;;;;;4790003;29;20098;-58
2023/10/21 06:11:54;;;;;;;47.53;19.40;;;9.60;99.90;;;;;;4790146;29;20056;-58
2023/10/21 06:14:21;;;;;;;47.97;18.35;;;9.40;99.90;;;;;;4789684;29;20484;-57
2023/10/21 06:16:47;;;;;;;51.22;17.35;;;9.30;99.90;;;;;;4789722;29;20059;-58
2023/10/21 06:19:13;;;;;;;47.05;18.13;;;9.20;99.90;;;;;;4789595;29;20078;-57
2023/10/21 06:21:40;;;;;;;48.78;19.02;;;9.10;99.90;;;;;;4790138;29;20047;-57
2023/10/21 06:24:06;;;;;;;48.00;17.83;;;9.50;99.90;;;;;;4788640;30;20078;-57
2023/10/21 06:26:32;;;;;;;45.53;18.45;;;9.70;99.90;;;;;;4789185;29;20062;-58
2023/10/21 06:28:59;;;;;;;51.03;25.90;;;9.60;99.90;;;;;;4789965;29;20063;-57
2023/10/21 06:31:24;;;;;;;53.10;25.10;;;9.60;99.90;;;;;;4789414;29;20051;-58
2023/10/21 06:33:50;;;;;;;43.33;20.95;;;9.60;99.90;;;;;;4789683;29;20054;-58
2023/10/21 06:36:17;;;;;;;48.08;18.63;;;9.30;99.90;;;;;;4789438;29;20063;-57
2023/10/21 06:38:43;;;;;;;42.97;19.40;;;9.40;99.90;;;;;;4789303;29;20499;-58
2023/10/21 06:41:10;;;;;;;41.90;17.63;;;9.30;99.90;;;;;;4789599;29;20051;-58
2023/10/21 06:43:36;;;;;;;43.13;17.00;;;9.40;99.90;;;;;;4789443;29;20151;-58
2023/10/21 06:46:02;;;;;;;42.00;16.30;;;9.40;99.90;;;;;;4789481;29;20047;-58
2023/10/21 06:48:31;;;;;;;39.65;16.85;;;9.30;99.90;;;;;;4789332;29;20119;-58
2023/10/21 06:50:58;;;;;;;46.90;16.60;;;9.40;99.90;;;;;;4787855;30;20196;-58
2023/10/21 06:53:23;;;;;;;46.63;17.75;;;9.70;99.90;;;;;;4789018;29;20052;-58
2023/10/21 06:55:49;;;;;;;40.47;16.10;;;9.50;99.90;;;;;;4789281;29;20074;-57
2023/10/21 06:58:15;;;;;;;38.30;16.10;;;9.40;99.90;;;;;;4789440;29;20047;-57
2023/10/21 07:00:41;;;;;;;39.00;15.70;;;9.80;99.90;;;;;;4788989;29;20313;-58
2023/10/21 07:03:07;;;;;;;38.88;15.13;;;9.90;99.90;;;;;;4791760;29;20130;-57
2023/10/21 07:05:34;;;;;;;40.92;15.98;;;10.10;99.90;;;;;;4792879;29;20051;-58
2023/10/21 07:08:00;;;;;;;39.08;15.85;;;9.70;99.90;;;;;;4792348;29;20058;-57
2023/10/21 07:10:30;;;;;;;41.65;17.23;;;10.10;99.90;;;;;;4792577;29;20043;-58
2023/10/21 07:12:58;;;;;;;41.65;18.17;;;10.20;99.90;;;;;;4793204;29;20044;-58
2023/10/21 07:15:25;;;;;;;37.60;15.25;;;10.10;99.90;;;;;;4792308;29;20059;-57
2023/10/21 07:17:50;;;;;;;36.72;15.85;;;9.80;99.90;;;;;;4792807;29;20059;-59
2023/10/21 07:20:17;;;;;;;34.38;15.55;;;10.30;99.90;;;;;;4792842;29;20134;-57
2023/10/21 07:22:46;;;;;;;36.75;15.50;;;9.80;99.90;;;;;;4792406;29;20062;-58
2023/10/21 07:25:12;;;;;;;38.80;16.23;;;9.90;99.90;;;;;;4792338;29;20059;-58
2023/10/21 07:27:38;;;;;;;35.03;14.90;;;10.00;99.90;;;;;;4792047;29;20104;-57
2023/10/21 07:30:04;;;;;;;36.85;15.35;;;10.00;99.90;;;;;;4793122;29;20051;-58
2023/10/21 07:32:30;;;;;;;37.60;15.88;;;10.30;99.90;;;;;;4791905;29;20581;-57
2023/10/21 07:34:56;;;;;;;39.95;14.98;;;10.50;99.90;;;;;;4790293;30;20046;-57
2023/10/21 07:37:21;;;;;;;40.15;15.80;;;10.00;99.90;;;;;;4791580;29;20492;-57
2023/10/21 07:39:47;;;;;;;38.70;16.45;;;10.60;99.90;;;;;;4791021;29;20059;-57
2023/10/21 07:42:14;;;;;;;33.47;15.65;;;10.50;99.90;;;;;;4791602;29;20047;-55
2023/10/21 07:44:41;;;;;;;38.03;15.60;;;10.50;99.90;;;;;;4790230;29;20085;-58
2023/10/21 07:47:07;;;;;;;36.88;16.02;;;10.20;99.90;;;;;;4791658;29;20459;-57
2023/10/21 07:49:33;;;;;;;35.95;15.73;;;10.30;99.90;;;;;;4790275;30;20069;-57
2023/10/21 07:51:59;;;;;;;36.28;15.82;;;10.50;99.90;;;;;;4791950;29;20055;-58
2023/10/21 07:54:25;;;;;;;32.60;15.27;;;10.90;99.90;;;;;;4792062;29;20167;-57
2023/10/21 07:56:52;;;;;;;37.92;15.70;;;10.40;99.90;;;;;;4790871;29;20201;-58
2023/10/21 07:59:19;;;;;;;37.22;15.43;;;10.40;99.90;;;;;;4791674;29;20463;-58
2023/10/21 08:01:45;;;;;;;36.30;14.48;;;10.90;99.90;;;;;;4790291;30;20069;-57
2023/10/21 08:04:11;;;;;;;34.22;15.75;;;10.70;99.90;;;;;;4792380;29;20063;-57
2023/10/21 08:06:38;;;;;;;36.72;14.85;;;10.70;99.90;;;;;;4792114;29;20124;-57
2023/10/21 08:09:08;;;;;;;36.90;14.63;;;10.90;99.90;;;;;;4792205;29;20089;-57
2023/10/21 08:11:33;;;;;;;30.65;14.73;;;11.20;99.90;;;;;;4792211;29;20318;-57
2023/10/21 08:13:59;;;;;;;37.20;15.82;;;11.20;99.90;;;;;;4790710;29;20279;-58
2023/10/21 08:16:25;;;;;;;32.30;14.15;;;11.00;99.90;;;;;;4791885;29;20062;-58
2023/10/21 08:18:50;;;;;;;34.45;15.55;;;11.30;99.90;;;;;;4791627;29;20076;-58
2023/10/21 08:21:18;;;;;;;32.88;15.68;;;10.80;99.90;;;;;;4792104;29;20067;-58
2023/10/21 08:23:43;;;;;;;34.05;15.20;;;10.90;99.90;;;;;;4791646;29;20055;-58
2023/10/21 08:26:09;;;;;;;30.73;14.98;;;11.10;99.90;;;;;;4791361;29;20059;-57
2023/10/21 08:28:35;;;;;;;36.13;16.00;;;11.40;99.90;;;;;;4792145;29;20156;-58
2023/10/21 08:31:00;;;;;;;35.55;15.60;;;11.20;99.90;;;;;;4790161;30;20465;-57
2023/10/21 08:33:26;;;;;;;32.15;15.00;;;11.60;99.90;;;;;;4791804;29;20425;-57
2023/10/21 08:35:52;;;;;;;37.78;15.80;;;11.10;99.90;;;;;;4791170;29;20062;-57
2023/10/21 08:38:18;;;;;;;40.25;15.60;;;11.30;99.90;;;;;;4791368;29;20080;-57
2023/10/21 08:40:46;;;;;;;32.05;16.02;;;11.30;99.90;;;;;;4791128;29;20057;-58
2023/10/21 08:43:17;;;;;;;37.10;16.92;;;11.80;99.90;;;;;;4791784;29;20057;-57
2023/10/21 08:45:44;;;;;;;38.65;16.58;;;12.00;99.90;;;;;;4790375;30;20059;-57
2023/10/21 08:48:13;;;;;;;33.78;15.68;;;12.00;99.90;;;;;;4791271;29;20071;-58
2023/10/21 08:50:39;;;;;;;37.05;17.23;;;12.00;99.90;;;;;;4790623;29;20059;-56
2023/10/21 08:53:06;;;;;;;39.55;17.10;;;12.20;99.90;;;;;;4791179;29;20111;-58
2023/10/21 08:55:37;;;;;;;38.10;16.98;;;12.20;99.90;;;;;;4791367;29;20047;-57
2023/10/21 08:58:03;;;;;;;30.08;16.13;;;12.20;99.90;;;;;;4790958;29;20700;-57
2023/10/21 09:00:29;;;;;;;31.15;15.95;;;12.10;99.90;;;;;;4791152;29;20078;-58
2023/10/21 09:02:55;;;;;;;31.02;16.45;;;11.80;99.90;;;;;;4791073;29;20078;-57
2023/10/21 09:05:21;;;;;;;34.20;17.00;;;11.90;99.90;;;;;;4790806;29;20540;-57
2023/10/21 09:07:49;;;;;;;34.85;17.40;;;12.00;99.90;;;;;;4790804;29;20060;-57
2023/10/21 09:10:16;;;;;;;30.23;16.33;;;12.10;99.90;;;;;;4789434;30;20055;-59
2023/10/21 09:12:42;;;;;;;29.20;15.63;;;12.50;99.90;;;;;;4791253;29;20139;-56
2023/10/21 09:15:09;;;;;;;32.97;16.42;;;12.70;99.90;;;;;;4790432;29;20067;-58
2023/10/21 09:17:40;;;;;;;30.30;15.40;;;12.20;99.90;;;;;;4790860;29;20058;-57
2023/10/21 09:20:10;;;;;;;33.53;15.77;;;12.80;99.90;;;;;;4791049;29;20113;-58
2023/10/21 09:22:36;;;;;;;30.60;15.73;;;13.00;99.90;;;;;;4789179;30;20393;-58
2023/10/21 09:25:09;;;;;;;32.28;15.35;;;13.10;99.90;;;;;;4789297;29;20116;-57
2023/10/21 09:27:35;;;;;;;31.38;15.65;;;12.40;99.90;;;;;;4790158;29;20063;-57
2023/10/21 09:30:00;;;;;;;29.55;15.27;;;12.50;99.90;;;;;;4791597;29;20048;-57
2023/10/21 09:32:29;;;;;;;31.13;15.40;;;12.70;99.90;;;;;;4791196;29;20078;-58
2023/10/21 09:35:12;;;;;;;26.08;14.30;;;13.20;99.90;;;;;;4790966;29;20051;-57
2023/10/21 09:37:38;;;;;;;25.48;14.00;;;13.30;99.90;;;;;;4791062;29;20067;-58
2023/10/21 09:40:06;;;;;;;27.92;15.48;;;12.80;99.90;;;;;;4790978;29;20197;-58
2023/10/21 09:42:36;;;;;;;30.73;14.82;;;13.40;99.90;;;;;;4792204;29;20055;-57
2023/10/21 09:45:03;;;;;;;29.60;14.02;;;12.80;99.90;;;;;;4792942;29;20081;-57
2023/10/21 09:47:30;;;;;;;25.60;12.43;;;13.20;99.90;;;;;;4794024;29;20054;-57
2023/10/21 09:49:58;;;;;;;26.77;12.95;;;13.30;99.90;;;;;;4794393;29;20047;-56
2023/10/21 09:52:35;;;;;;;21.08;12.25;;;13.50;99.90;;;;;;4793501;29;20087;-58
2023/10/21 09:55:08;;;;;;;25.15;11.40;;;12.80;99.90;;;;;;4793938;29;20066;-57
2023/10/21 09:57:37;;;;;;;18.92;10.75;;;13.50;99.90;;;;;;4793542;29;20130;-58
2023/10/21 10:00:08;;;;;;;21.23;11.40;;;12.90;99.90;;;;;;4794218;29;20092;-58
2023/10/21 10:02:38;;;;;;;18.23;10.30;;;13.00;99.90;;;;;;4793957;29;20051;-57
2023/10/21 10:05:09;;;;;;;21.55;11.18;;;13.60;99.90;;;;;;4793660;29;20054;-57
2023/10/21 10:07:36;;;;;;;23.70;10.77;;;13.10;99.90;;;;;;4793762;29;20135;-58
2023/10/21 10:10:07;;;;;;;19.70;10.43;;;13.20;99.90;;;;;;4792315;30;20051;-57
2023/10/21 10:12:46;;;;;;;20.08;9.77;;;13.10;99.90;;;;;;4793675;29;20051;-57
2023/10/21 10:15:31;;;;;;;21.45;9.60;;;13.00;99.90;;;;;;4793601;29;20059;-57
2023/10/21 10:18:00;;;;;;;22.85;10.00;;;13.00;99.90;;;;;;4791862;29;20047;-58
2023/10/21 10:20:27;;;;;;;16.42;10.90;;;13.60;99.90;;;;;;4793679;29;20076;-58
2023/10/21 10:22:58;;;;;;;18.30;9.48;;;13.50;99.90;;;;;;4793112;29;20499;-57
2023/10/21 10:25:41;;;;;;;15.68;8.45;;;13.50;99.90;;;;;;4793487;29;20059;-58
2023/10/21 10:28:10;;;;;;;;;;;13.60;99.90;;;;;;4793978;30;20135;-57
2023/10/21 10:30:46;;;;;;;16.95;8.35;;;13.20;99.90;;;;;;4792748;30;19925;-57
2023/10/21 10:33:16;;;;;;;15.05;7.88;;;13.20;99.90;;;;;;4791472;30;20055;-57
2023/10/21 10:35:49;;;;;;;13.07;8.35;;;13.20;99.90;;;;;;4792816;29;20063;-59
2023/10/21 10:38:32;;;;;;;15.80;7.93;;;13.60;99.90;;;;;;4792552;29;20059;-59
2023/10/21 10:41:06;;;;;;;12.57;7.20;;;13.40;99.90;;;;;;4792943;29;20058;-58
2023/10/21 10:43:32;;;;;;;14.82;7.63;;;13.30;99.90;;;;;;4792720;29;20058;-58
2023/10/21 10:46:00;;;;;;;12.30;6.93;;;13.10;99.90;;;;;;4791886;29;20044;-60
2023/10/21 10:48:26;;;;;;;15.38;6.93;;;13.50;99.90;;;;;;4792633;29;20128;-60
2023/10/21 10:50:57;;;;;;;12.88;6.32;;;13.50;99.90;;;;;;4790405;30;20099;-61
2023/10/21 10:53:22;;;;;;;11.38;7.25;;;13.70;99.90;;;;;;4792448;29;20177;-60
2023/10/21 10:55:53;;;;;;;13.10;6.68;;;13.50;99.90;;;;;;4792203;29;20081;-60
2023/10/21 10:58:20;;;;;;;16.10;6.78;;;13.30;99.90;;;;;;4790479;30;20130;-60
2023/10/21 11:00:47;;;;;;;10.27;5.95;;;13.10;99.90;;;;;;4792543;29;20051;-59
2023/10/21 11:03:31;;;;;;;10.45;5.45;;;13.20;99.90;;;;;;4792528;29;20055;-59
2023/10/21 11:05:58;;;;;;;10.10;5.70;;;13.20;99.90;;;;;;4791255;30;20488;-59
2023/10/21 11:08:25;;;;;;;9.43;5.05;;;13.00;99.90;;;;;;4790209;30;20130;-59
2023/10/21 11:10:53;;;;;;;10.95;4.97;;;13.10;99.90;;;;;;4792085;29;20068;-59
2023/10/21 11:13:21;;;;;;;8.82;4.20;;;13.10;99.90;;;;;;4791684;30;20054;-58
2023/10/21 11:15:55;;;;;;;6.82;3.67;;;13.60;99.90;;;;;;4792869;29;20042;-59
2023/10/21 11:18:21;;;;;;;7.68;3.50;;;13.40;99.90;;;;;;4789265;30;20064;-59
2023/10/21 11:20:53;;;;;;;8.82;3.67;;;13.00;99.90;;;;;;4791566;30;20047;-58
2023/10/21 11:23:23;;;;;;;7.22;3.83;;;13.40;99.90;;;;;;4789753;30;20051;-58
2023/10/21 11:25:52;;;;;;;13.68;4.22;;;13.30;99.90;;;;;;4791757;30;20081;-59
2023/10/21 11:28:18;;;;;;;9.00;4.25;;;13.10;99.90;;;;;;4790147;30;20047;-58
2023/10/21 11:30:45;;;;;;;8.52;4.18;;;13.20;99.90;;;;;;4792754;29;20070;-58
2023/10/21 11:33:11;;;;;;;7.10;3.58;;;13.50;99.90;;;;;;4792596;29;20570;-59
2023/10/21 11:35:41;;;;;;;9.20;3.60;;;13.40;99.90;;;;;;4792282;29;20060;-58
2023/10/21 11:38:07;;;;;;;6.63;3.50;;;13.50;99.90;;;;;;4792928;29;20039;-58
2023/10/21 11:40:37;;;;;;;7.70;3.17;;;13.50;99.90;;;;;;4792676;29;20059;-58
2023/10/21 11:43:06;;;;;;;6.85;3.17;;;13.90;99.90;;;;;;4793123;29;20138;-58
2023/10/21 11:45:32;;;;;;;6.60;3.15;;;13.80;99.90;;;;;;4792873;29;20054;-58
2023/10/21 11:47:59;;;;;;;6.78;3.17;;;13.70;99.90;;;;;;4790906;29;20059;-58
2023/10/21 11:50:33;;;;;;;6.28;2.60;;;13.60;99.90;;;;;;4795083;29;20587;-60
2023/10/21 11:53:06;;;;;;;6.47;2.90;;;13.60;99.90;;;;;;4795952;29;20047;-58
2023/10/21 12:19:51;;;;;;;6.30;2.30;;;13.40;99.90;;;;;;4795561;29;20051;-59
2023/10/21 12:33:20;;;;;;;3.97;1.60;;;13.50;99.90;;;;;;4795167;29;20059;-58
2023/10/21 12:36:07;;;;;;;3.85;1.63;;;13.50;99.90;;;;;;4794636;30;20055;-58
2023/10/21 12:41:28;;;;;;;5.13;1.50;;;13.70;99.90;;;;;;4801237;29;20099;-58
2023/10/21 12:44:00;;;;;;;3.67;1.40;;;13.70;99.90;;;;;;4792618;29;20142;-58
2023/10/21 12:46:30;;;;;;;4.78;1.70;;;13.70;99.90;;;;;;4789405;30;20051;-58
2023/10/21 12:48:57;;;;;;;3.47;1.35;;;13.70;99.90;;;;;;4791659;29;20066;-56
2023/10/21 12:51:24;;;;;;;4.50;1.40;;;13.70;99.90;;;;;;4790302;29;20581;-57
2023/10/21 12:53:50;;;;;;;4.13;1.40;;;13.70;99.90;;;;;;4793001;29;20040;-57
2023/10/21 12:56:16;;;;;;;4.82;1.77;;;13.60;99.90;;;;;;4794194;29;20114;-58
2023/10/21 12:58:42;;;;;;;6.20;1.15;;;13.60;99.90;;;;;;4795891;29;20039;-57
2023/10/21 13:01:12;;;;;;;2.95;1.00;;;13.60;99.90;;;;;;4793417;29;20062;-55
2023/10/21 13:03:40;;;;;;;4.30;1.38;;;13.60;99.90;;;;;;4794675;29;20108;-58
2023/10/21 13:06:06;;;;;;;5.38;1.90;;;13.60;99.90;;;;;;4794242;29;20412;-57
2023/10/21 13:08:35;;;;;;;3.55;1.27;;;13.70;99.90;;;;;;4793354;30;20051;-57
2023/10/21 13:11:02;;;;;;;6.18;1.55;;;13.70;99.90;;;;;;4794262;29;20051;-58
2023/10/21 13:13:28;;;;;;;5.10;1.20;;;13.80;99.90;;;;;;4793785;29;20151;-57